Time;durP1;ratioP1;P1;durP2;ratioP2;P2;SDS_P1;SDS_P2;PMS_P1;PMS_P2;Temp;Humidity;BMP_temperature;BMP_pressure;BME280_temperature;BME280_humidity;BME280_pressure;Samples;Min_cycle;Max_cycle;Signal;HPM_P1;HPM_P2
2022/11/14 00:02:23;;;;;;;18.77;12.45;;;;;;;;;;5028302;28;20207;-43
2022/11/14 00:04:49;;;;;;;16.20;11.30;;;;;;;;;;5025346;28;20195;-43
2022/11/14 00:07:15;;;;;;;13.73;10.77;;;;;;;;;;5024852;28;20246;-43
2022/11/14 00:09:41;;;;;;;17.63;12.00;;;;;;;;;;5026058;28;20194;-44
2022/11/14 00:12:11;;;;;;;13.60;11.65;;;;;;;;;;5026035;28;20622;-43
2022/11/14 00:14:37;;;;;;;17.67;11.00;;;;;;;;;;5025339;28;20251;-43
2022/11/14 00:17:04;;;;;;;16.73;10.73;;;;;;;;;;5026404;28;20184;-43
2022/11/14 00:19:30;;;;;;;17.52;11.35;;;;;;;;;;5028783;28;20556;-44
2022/11/14 00:21:56;;;;;;;14.82;11.48;;;;;;;;;;5022537;28;20200;-44
2022/11/14 00:24:22;;;;;;;13.23;10.30;;;;;;;;;;5026126;28;20180;-43
2022/11/14 00:26:48;;;;;;;14.32;9.90;;;;;;;;;;5026157;28;20196;-43
2022/11/14 00:29:15;;;;;;;11.93;10.23;;;;;;;;;;5025879;28;20307;-44
2022/11/14 00:31:41;;;;;;;15.90;10.93;;;;;;;;;;5025313;28;20438;-43
2022/11/14 00:34:07;;;;;;;12.10;9.40;;;;;;;;;;5026648;28;20178;-42
2022/11/14 00:36:33;;;;;;;17.13;11.00;;;;;;;;;;5026441;28;20202;-42
2022/11/14 00:38:59;;;;;;;12.63;9.90;;;;;;;;;;5021910;28;20191;-43
2022/11/14 00:41:25;;;;;;;13.32;10.57;;;;;;;;;;5028989;28;20203;-43
2022/11/14 00:43:51;;;;;;;14.70;10.25;;;;;;;;;;5026719;28;20211;-43
2022/11/14 00:46:18;;;;;;;11.43;10.17;;;;;;;;;;5028656;28;20705;-43
2022/11/14 00:48:44;;;;;;;12.90;10.35;;;;;;;;;;5023665;28;20406;-43
2022/11/14 00:51:10;;;;;;;12.35;9.82;;;;;;;;;;5024586;28;20573;-43
2022/11/14 00:53:36;;;;;;;12.77;11.00;;;;;;;;;;5025111;28;20179;-43
2022/11/14 00:56:02;;;;;;;14.52;9.70;;;;;;;;;;5026395;28;20209;-43
2022/11/14 00:58:28;;;;;;;13.43;10.45;;;;;;;;;;5025545;28;20657;-43
2022/11/14 01:00:54;;;;;;;13.70;10.10;;;;;;;;;;5024357;28;20204;-43
2022/11/14 01:03:20;;;;;;;15.02;11.15;;;;;;;;;;5026152;28;20417;-43
2022/11/14 01:05:48;;;;;;;11.60;10.27;;;;;;;;;;5025512;28;20183;-42
2022/11/14 01:08:15;;;;;;;13.95;11.38;;;;;;;;;;5025021;28;20168;-43
2022/11/14 01:10:42;;;;;;;15.70;10.65;;;;;;;;;;5025507;28;20181;-43
2022/11/14 01:13:08;;;;;;;13.27;10.65;;;;;;;;;;5029553;28;20171;-43
2022/11/14 01:15:38;;;;;;;19.13;13.73;;;;;;;;;;5028211;28;20187;-44
2022/11/14 01:18:04;;;;;;;13.10;10.75;;;;;;;;;;5023586;28;20180;-43
2022/11/14 01:20:30;;;;;;;14.33;11.43;;;;;;;;;;5023292;28;20180;-43
2022/11/14 01:22:56;;;;;;;14.18;11.15;;;;;;;;;;5026424;28;20399;-44
2022/11/14 01:25:22;;;;;;;15.40;11.87;;;;;;;;;;5028313;28;20254;-44
2022/11/14 01:27:48;;;;;;;14.77;11.52;;;;;;;;;;5026496;28;20470;-45
2022/11/14 01:30:14;;;;;;;19.08;11.90;;;;;;;;;;5029055;28;20222;-44
2022/11/14 01:32:40;;;;;;;17.85;12.82;;;;;;;;;;5027352;28;20210;-43
2022/11/14 01:35:06;;;;;;;17.83;12.50;;;;;;;;;;5021539;28;20183;-44
2022/11/14 01:37:32;;;;;;;15.10;12.68;;;;;;;;;;5028599;28;20430;-43
2022/11/14 01:39:58;;;;;;;14.63;12.20;;;;;;;;;;5025735;28;20246;-43
2022/11/14 01:42:24;;;;;;;16.40;13.23;;;;;;;;;;5028161;28;20432;-43
2022/11/14 01:44:51;;;;;;;15.60;12.25;;;;;;;;;;5025587;28;20780;-43
2022/11/14 01:47:35;;;;;;;20.55;14.02;;;;;;;;;;5026684;28;20571;-44
2022/11/14 01:50:04;;;;;;;18.02;13.77;;;;;;;;;;5026969;28;20195;-44
2022/11/14 01:52:38;;;;;;;14.40;12.90;;;;;;;;;;5024907;28;20196;-43
2022/11/14 01:55:05;;;;;;;16.67;12.38;;;;;;;;;;5032558;28;20206;-44
2022/11/14 01:57:36;;;;;;;19.25;14.02;;;;;;;;;;5028383;28;20237;-44
2022/11/14 02:00:06;;;;;;;17.85;13.35;;;;;;;;;;5023254;28;20184;-43
2022/11/14 02:02:32;;;;;;;19.55;13.00;;;;;;;;;;5031254;28;20210;-43
2022/11/14 02:05:02;;;;;;;14.85;12.52;;;;;;;;;;5033126;28;20172;-44
2022/11/14 02:07:30;;;;;;;19.85;13.20;;;;;;;;;;5035022;28;20492;-43
2022/11/14 02:09:56;;;;;;;16.33;13.05;;;;;;;;;;5032633;28;20188;-45
2022/11/14 02:12:23;;;;;;;18.58;15.02;;;;;;;;;;5034809;28;20220;-43
2022/11/14 02:14:50;;;;;;;17.70;14.40;;;;;;;;;;5035214;28;20190;-44
2022/11/14 02:17:17;;;;;;;15.30;13.23;;;;;;;;;;5029423;28;20186;-43
2022/11/14 02:19:45;;;;;;;17.25;14.23;;;;;;;;;;5034918;28;20201;-43
2022/11/14 02:22:11;;;;;;;16.00;13.57;;;;;;;;;;5023192;28;20199;-43
2022/11/14 02:24:37;;;;;;;14.47;12.70;;;;;;;;;;5032475;28;20253;-43
2022/11/14 02:27:05;;;;;;;15.45;11.55;;;;;;;;;;5034038;28;20501;-42
2022/11/14 02:29:32;;;;;;;14.50;12.02;;;;;;;;;;5032084;28;20177;-43
2022/11/14 02:31:58;;;;;;;35.05;18.70;;;;;;;;;;5032742;28;20725;-43
2022/11/14 02:34:24;;;;;;;21.38;14.88;;;;;;;;;;5031964;28;20199;-43
2022/11/14 02:36:50;;;;;;;19.58;13.88;;;;;;;;;;5037932;28;20224;-43
2022/11/14 02:39:16;;;;;;;13.38;11.70;;;;;;;;;;5032457;28;20240;-43
2022/11/14 02:41:42;;;;;;;18.40;14.23;;;;;;;;;;5030244;28;20212;-43
2022/11/14 02:44:08;;;;;;;16.50;14.00;;;;;;;;;;5032852;28;20446;-43
2022/11/14 02:46:34;;;;;;;16.43;12.73;;;;;;;;;;5031305;28;20192;-43
2022/11/14 02:49:00;;;;;;;17.10;13.03;;;;;;;;;;5034296;28;20411;-43
2022/11/14 02:51:26;;;;;;;18.10;13.20;;;;;;;;;;5035182;28;20449;-43
2022/11/14 02:53:52;;;;;;;15.83;12.23;;;;;;;;;;5035837;28;20422;-43
2022/11/14 02:56:18;;;;;;;20.10;14.63;;;;;;;;;;5030588;28;20437;-44
2022/11/14 02:58:45;;;;;;;20.07;12.83;;;;;;;;;;5028526;28;20184;-42
2022/11/14 03:01:11;;;;;;;13.32;11.93;;;;;;;;;;5023069;28;20431;-43
2022/11/14 03:03:37;;;;;;;17.55;12.15;;;;;;;;;;5031684;28;20179;-43
2022/11/14 03:06:04;;;;;;;15.10;12.50;;;;;;;;;;5033386;28;20196;-44
2022/11/14 03:08:30;;;;;;;16.42;12.25;;;;;;;;;;5033214;28;20491;-43
2022/11/14 03:11:03;;;;;;;14.27;12.30;;;;;;;;;;5033469;28;20214;-41
2022/11/14 03:13:29;;;;;;;17.10;12.95;;;;;;;;;;5033799;28;20206;-43
2022/11/14 03:15:55;;;;;;;13.98;11.85;;;;;;;;;;5023310;28;20179;-44
2022/11/14 03:18:21;;;;;;;13.70;12.00;;;;;;;;;;5031756;28;20179;-44
2022/11/14 03:20:48;;;;;;;14.35;12.95;;;;;;;;;;5028044;28;20626;-43
2022/11/14 03:23:14;;;;;;;13.35;11.45;;;;;;;;;;5030831;28;20191;-43
2022/11/14 03:25:40;;;;;;;13.60;10.60;;;;;;;;;;5028373;28;20187;-44
2022/11/14 03:28:06;;;;;;;14.90;13.07;;;;;;;;;;5029812;28;20864;-44
2022/11/14 03:30:32;;;;;;;18.00;12.70;;;;;;;;;;5026091;28;20422;-44
2022/11/14 03:32:58;;;;;;;14.80;11.98;;;;;;;;;;5029514;28;20798;-43
2022/11/14 03:35:24;;;;;;;16.57;12.10;;;;;;;;;;5030038;28;20184;-43
2022/11/14 03:37:50;;;;;;;14.05;11.68;;;;;;;;;;5026725;28;20415;-44
2022/11/14 03:40:16;;;;;;;14.13;11.23;;;;;;;;;;5028744;28;20533;-43
2022/11/14 03:42:42;;;;;;;15.57;11.48;;;;;;;;;;5027858;28;20454;-42
2022/11/14 03:45:09;;;;;;;19.60;12.53;;;;;;;;;;5027860;28;20187;-42
2022/11/14 03:47:35;;;;;;;16.48;12.25;;;;;;;;;;5027033;28;20471;-43
2022/11/14 03:50:01;;;;;;;18.50;12.40;;;;;;;;;;5031924;28;20451;-43
2022/11/14 03:52:27;;;;;;;14.13;11.93;;;;;;;;;;5028526;28;20819;-43
2022/11/14 03:54:53;;;;;;;12.83;10.43;;;;;;;;;;5024497;28;20415;-43
2022/11/14 03:57:19;;;;;;;18.67;11.82;;;;;;;;;;5027187;28;20469;-42
2022/11/14 03:59:46;;;;;;;16.60;11.88;;;;;;;;;;5027435;28;20254;-42
2022/11/14 04:02:12;;;;;;;14.85;10.35;;;;;;;;;;5030600;28;20188;-42
2022/11/14 04:04:38;;;;;;;15.40;10.00;;;;;;;;;;5028115;28;20278;-42
2022/11/14 04:07:05;;;;;;;12.77;10.60;;;;;;;;;;5030806;28;20469;-42
2022/11/14 04:09:31;;;;;;;14.95;11.60;;;;;;;;;;5027061;28;20406;-42
2022/11/14 04:11:57;;;;;;;15.30;10.40;;;;;;;;;;5022158;28;20230;-42
2022/11/14 04:14:23;;;;;;;13.98;10.43;;;;;;;;;;5030465;28;20556;-43
2022/11/14 04:16:49;;;;;;;12.27;10.40;;;;;;;;;;5027533;28;20724;-43
2022/11/14 04:19:15;;;;;;;12.90;10.47;;;;;;;;;;5029666;28;20176;-43
2022/11/14 04:21:41;;;;;;;14.43;10.90;;;;;;;;;;5026622;28;20998;-42
2022/11/14 04:24:07;;;;;;;13.17;10.90;;;;;;;;;;5028652;28;20407;-43
2022/11/14 04:26:33;;;;;;;14.57;9.25;;;;;;;;;;5025402;28;20468;-43
2022/11/14 04:28:59;;;;;;;12.47;9.87;;;;;;;;;;5028149;28;20184;-43
2022/11/14 04:31:25;;;;;;;12.65;10.48;;;;;;;;;;5029212;28;20438;-43
2022/11/14 04:33:51;;;;;;;17.33;10.90;;;;;;;;;;5025510;28;20269;-43
2022/11/14 04:36:17;;;;;;;14.88;10.55;;;;;;;;;;5028331;28;20848;-43
2022/11/14 04:38:43;;;;;;;13.73;10.75;;;;;;;;;;5026738;28;20173;-42
2022/11/14 04:41:09;;;;;;;12.63;9.80;;;;;;;;;;5025791;28;20192;-42
2022/11/14 04:43:35;;;;;;;13.63;11.00;;;;;;;;;;5026471;28;20423;-42
2022/11/14 04:46:01;;;;;;;17.30;10.88;;;;;;;;;;5032006;28;20217;-43
2022/11/14 04:48:27;;;;;;;22.37;11.17;;;;;;;;;;5027322;28;20616;-42
2022/11/14 04:50:53;;;;;;;14.43;11.27;;;;;;;;;;5019036;28;20497;-42
2022/11/14 04:53:19;;;;;;;12.90;10.43;;;;;;;;;;5025695;28;20415;-42
2022/11/14 04:55:45;;;;;;;14.52;11.45;;;;;;;;;;5026422;28;20177;-43
2022/11/14 04:58:11;;;;;;;17.17;11.60;;;;;;;;;;5030040;28;20262;-42
2022/11/14 05:00:38;;;;;;;15.35;10.98;;;;;;;;;;5026995;28;20425;-43
2022/11/14 05:03:04;;;;;;;17.08;11.75;;;;;;;;;;5029895;28;20179;-43
2022/11/14 05:05:31;;;;;;;10.77;7.85;;;;;;;;;;5026231;28;20182;-43
2022/11/14 05:07:58;;;;;;;11.90;8.50;;;;;;;;;;5021961;28;20208;-43
2022/11/14 05:10:24;;;;;;;11.90;7.78;;;;;;;;;;5029159;28;20203;-44
2022/11/14 05:12:52;;;;;;;8.75;7.78;;;;;;;;;;5026098;28;20208;-44
2022/11/14 05:15:18;;;;;;;12.10;8.48;;;;;;;;;;5027508;28;20629;-43
2022/11/14 05:17:44;;;;;;;12.67;9.83;;;;;;;;;;5025265;28;20179;-43
2022/11/14 05:20:11;;;;;;;15.35;9.80;;;;;;;;;;5026948;28;20431;-42
2022/11/14 05:22:37;;;;;;;14.13;10.82;;;;;;;;;;5024772;28;20235;-45
2022/11/14 05:25:03;;;;;;;10.48;9.38;;;;;;;;;;5026395;28;20191;-43
2022/11/14 05:27:29;;;;;;;12.20;9.90;;;;;;;;;;5027837;28;20300;-43
2022/11/14 05:29:55;;;;;;;13.02;9.05;;;;;;;;;;5022266;28;20172;-43
2022/11/14 05:32:21;;;;;;;12.15;9.23;;;;;;;;;;5026895;28;20606;-43
2022/11/14 05:34:47;;;;;;;11.50;9.55;;;;;;;;;;5026086;28;20173;-43
2022/11/14 05:37:13;;;;;;;13.43;9.52;;;;;;;;;;5025379;28;20186;-43
2022/11/14 05:39:39;;;;;;;12.40;9.48;;;;;;;;;;5026001;28;20234;-44
2022/11/14 05:42:05;;;;;;;12.40;9.30;;;;;;;;;;5030903;28;20208;-43
2022/11/14 05:44:31;;;;;;;20.60;10.97;;;;;;;;;;5027423;28;20416;-43
2022/11/14 05:46:57;;;;;;;14.27;10.18;;;;;;;;;;5023358;28;20455;-43
2022/11/14 05:49:23;;;;;;;12.07;10.77;;;;;;;;;;5024814;28;20556;-43
2022/11/14 05:51:50;;;;;;;14.10;10.13;;;;;;;;;;5025944;28;20419;-42
2022/11/14 05:54:15;;;;;;;17.42;11.77;;;;;;;;;;5028647;28;20409;-43
2022/11/14 05:56:41;;;;;;;22.40;11.97;;;;;;;;;;5027243;28;20287;-42
2022/11/14 05:59:07;;;;;;;13.73;11.20;;;;;;;;;;5028787;28;20411;-42
2022/11/14 06:01:34;;;;;;;19.05;14.55;;;;;;;;;;5026085;28;20513;-42
2022/11/14 06:04:00;;;;;;;25.38;13.85;;;;;;;;;;5021600;28;20188;-44
2022/11/14 06:06:26;;;;;;;17.53;12.83;;;;;;;;;;5028342;28;20206;-44
2022/11/14 06:08:52;;;;;;;17.85;10.75;;;;;;;;;;5026372;28;20411;-44
2022/11/14 06:11:19;;;;;;;15.73;9.40;;;;;;;;;;5027499;28;20218;-43
2022/11/14 06:13:45;;;;;;;15.00;10.25;;;;;;;;;;5025278;28;20175;-43
2022/11/14 06:16:12;;;;;;;13.75;9.73;;;;;;;;;;5022613;28;20175;-43
2022/11/14 06:18:39;;;;;;;13.27;8.38;;;;;;;;;;5024960;28;20195;-43
2022/11/14 06:21:06;;;;;;;10.35;7.32;;;;;;;;;;5024879;28;20864;-42
2022/11/14 06:23:32;;;;;;;10.48;8.18;;;;;;;;;;5028620;28;20279;-43
2022/11/14 06:26:03;;;;;;;9.48;7.78;;;;;;;;;;5023485;28;20519;-43
2022/11/14 06:28:29;;;;;;;11.52;7.20;;;;;;;;;;5024302;28;20184;-43
2022/11/14 06:31:02;;;;;;;10.02;6.65;;;;;;;;;;5024629;28;20692;-44
2022/11/14 06:33:29;;;;;;;10.52;8.60;;;;;;;;;;5024688;28;20222;-43
2022/11/14 06:35:58;;;;;;;8.05;7.13;;;;;;;;;;5026264;28;20178;-42
2022/11/14 06:38:24;;;;;;;10.30;8.13;;;;;;;;;;5028188;28;20176;-43
2022/11/14 06:40:50;;;;;;;11.88;8.25;;;;;;;;;;5028932;28;20259;-43
2022/11/14 06:43:16;;;;;;;12.85;8.95;;;;;;;;;;5024082;28;20180;-43
2022/11/14 06:45:42;;;;;;;17.17;11.75;;;;;;;;;;5021494;28;20188;-43
2022/11/14 06:48:08;;;;;;;18.50;11.05;;;;;;;;;;5028320;28;20184;-42
2022/11/14 06:50:34;;;;;;;48.43;24.73;;;;;;;;;;5028064;28;20221;-42
2022/11/14 06:53:00;;;;;;;35.77;18.63;;;;;;;;;;5025637;28;20415;-42
2022/11/14 06:55:26;;;;;;;33.67;18.27;;;;;;;;;;5029690;28;20419;-43
2022/11/14 06:57:53;;;;;;;24.17;14.97;;;;;;;;;;5028434;28;20418;-43
2022/11/14 07:00:19;;;;;;;32.22;14.95;;;;;;;;;;5022167;28;20786;-43
2022/11/14 07:02:46;;;;;;;32.42;15.80;;;;;;;;;;5029138;28;20210;-43
2022/11/14 07:05:12;;;;;;;25.83;14.82;;;;;;;;;;5022773;28;20176;-44
2022/11/14 07:07:37;;;;;;;27.40;14.50;;;;;;;;;;5020225;28;20266;-43
2022/11/14 07:10:04;;;;;;;29.07;13.80;;;;;;;;;;5029646;28;20932;-43
2022/11/14 07:12:31;;;;;;;24.90;12.30;;;;;;;;;;5025125;28;20442;-43
2022/11/14 07:14:57;;;;;;;18.40;10.48;;;;;;;;;;5027506;28;20168;-43
2022/11/14 07:17:23;;;;;;;14.73;8.75;;;;;;;;;;5026834;28;20658;-43
2022/11/14 07:19:49;;;;;;;13.90;9.70;;;;;;;;;;5032664;28;20190;-43
2022/11/14 07:22:15;;;;;;;13.40;10.07;;;;;;;;;;5026506;28;20199;-44
2022/11/14 07:24:41;;;;;;;9.43;7.95;;;;;;;;;;5025452;28;20450;-43
2022/11/14 07:27:10;;;;;;;12.37;9.00;;;;;;;;;;5028206;28;20195;-44
2022/11/14 07:29:36;;;;;;;10.13;7.75;;;;;;;;;;5026754;28;20396;-44
2022/11/14 07:32:02;;;;;;;13.48;7.90;;;;;;;;;;5028604;28;20287;-43
2022/11/14 07:34:29;;;;;;;13.85;8.25;;;;;;;;;;5027052;28;20192;-44
2022/11/14 07:36:55;;;;;;;10.25;7.95;;;;;;;;;;5028084;28;20191;-43
2022/11/14 07:39:21;;;;;;;9.35;8.23;;;;;;;;;;5025002;28;20195;-43
2022/11/14 07:41:47;;;;;;;13.53;9.73;;;;;;;;;;5022162;28;20200;-43
2022/11/14 07:44:13;;;;;;;15.50;8.80;;;;;;;;;;5029397;28;20785;-44
2022/11/14 07:46:39;;;;;;;9.50;8.27;;;;;;;;;;5028234;28;20279;-45
2022/11/14 07:49:05;;;;;;;14.15;8.88;;;;;;;;;;5028347;28;20399;-43
2022/11/14 07:51:31;;;;;;;12.80;8.25;;;;;;;;;;5027526;28;20199;-43
2022/11/14 07:53:57;;;;;;;12.70;8.47;;;;;;;;;;5027950;28;20251;-43
2022/11/14 07:56:24;;;;;;;17.73;9.20;;;;;;;;;;5024356;28;20510;-43
2022/11/14 07:58:51;;;;;;;16.10;9.65;;;;;;;;;;5029850;28;20419;-43
2022/11/14 08:01:17;;;;;;;21.35;11.43;;;;;;;;;;5026510;28;20203;-44
2022/11/14 08:03:43;;;;;;;20.80;12.47;;;;;;;;;;5026939;28;20192;-44
2022/11/14 08:06:13;;;;;;;18.48;12.23;;;;;;;;;;5029333;28;21117;-44
2022/11/14 08:08:39;;;;;;;16.98;12.45;;;;;;;;;;5027824;28;20179;-44
2022/11/14 08:11:05;;;;;;;17.05;10.95;;;;;;;;;;5026238;28;21277;-44
2022/11/14 08:13:31;;;;;;;16.05;10.15;;;;;;;;;;5031838;28;20180;-44
2022/11/14 08:15:59;;;;;;;18.63;10.30;;;;;;;;;;5030685;28;20208;-44
2022/11/14 08:18:25;;;;;;;15.55;9.45;;;;;;;;;;5029394;28;20171;-43
2022/11/14 08:20:51;;;;;;;12.43;10.37;;;;;;;;;;5022569;28;20230;-44
2022/11/14 08:23:17;;;;;;;20.37;11.67;;;;;;;;;;5025589;28;20937;-44
2022/11/14 08:25:43;;;;;;;21.53;10.30;;;;;;;;;;5024528;28;20474;-43
2022/11/14 08:28:09;;;;;;;21.27;11.37;;;;;;;;;;5027375;28;20462;-44
2022/11/14 08:30:35;;;;;;;44.07;18.73;;;;;;;;;;5025782;28;20412;-44
2022/11/14 08:33:02;;;;;;;36.00;16.30;;;;;;;;;;5027116;28;20522;-44
2022/11/14 08:35:28;;;;;;;23.87;13.30;;;;;;;;;;5023130;28;20418;-45
2022/11/14 08:37:54;;;;;;;21.50;11.17;;;;;;;;;;5025350;28;20416;-44
2022/11/14 08:40:20;;;;;;;20.20;12.20;;;;;;;;;;5029117;28;20422;-43
2022/11/14 08:42:46;;;;;;;24.47;14.63;;;;;;;;;;5025511;28;20475;-44
2022/11/14 08:45:12;;;;;;;26.63;12.70;;;;;;;;;;5028078;28;20404;-44
2022/11/14 08:47:38;;;;;;;19.13;10.63;;;;;;;;;;5023782;28;20475;-44
2022/11/14 08:50:04;;;;;;;22.47;11.77;;;;;;;;;;5024632;28;20422;-43
2022/11/14 08:52:30;;;;;;;19.23;11.10;;;;;;;;;;5021911;28;20432;-44
2022/11/14 08:54:56;;;;;;;26.30;12.70;;;;;;;;;;5023209;28;20496;-44
2022/11/14 08:57:22;;;;;;;24.53;11.93;;;;;;;;;;5025743;28;20427;-43
2022/11/14 08:59:48;;;;;;;17.73;11.57;;;;;;;;;;5021761;28;20459;-43
2022/11/14 09:02:14;;;;;;;16.53;11.70;;;;;;;;;;5028103;28;20456;-42
2022/11/14 09:04:40;;;;;;;24.50;12.53;;;;;;;;;;5022141;28;20419;-42
2022/11/14 09:07:06;;;;;;;19.73;10.90;;;;;;;;;;5023223;28;20564;-43
2022/11/14 09:09:32;;;;;;;13.63;10.70;;;;;;;;;;5021644;28;20513;-43
2022/11/14 09:11:58;;;;;;;15.07;11.57;;;;;;;;;;5025903;28;20846;-42
2022/11/14 09:14:24;;;;;;;14.97;10.80;;;;;;;;;;5022789;28;20853;-43
2022/11/14 09:16:50;;;;;;;19.23;12.50;;;;;;;;;;5014939;28;20532;-42
2022/11/14 09:19:16;;;;;;;21.30;12.40;;;;;;;;;;5019835;28;20433;-43
2022/11/14 09:21:42;;;;;;;24.60;13.00;;;;;;;;;;5019870;28;20434;-43
2022/11/14 09:24:09;;;;;;;25.20;13.60;;;;;;;;;;5023779;28;20409;-43
2022/11/14 09:26:35;;;;;;;28.70;14.53;;;;;;;;;;5023299;28;20468;-42
2022/11/14 09:29:01;;;;;;;35.30;14.97;;;;;;;;;;5025114;28;20593;-43
2022/11/14 09:31:27;;;;;;;28.00;15.10;;;;;;;;;;5016604;28;20475;-42
2022/11/14 09:33:53;;;;;;;23.10;14.67;;;;;;;;;;5021062;28;20502;-42
2022/11/14 09:36:19;;;;;;;22.63;13.60;;;;;;;;;;5020488;28;20506;-43
2022/11/14 09:38:45;;;;;;;28.30;15.17;;;;;;;;;;5019940;28;20411;-42
2022/11/14 09:41:25;;;;;;;19.90;12.80;;;;;;;;;;5019987;28;20427;-42
2022/11/14 09:44:09;;;;;;;20.30;12.70;;;;;;;;;;5016024;28;20792;-44
2022/11/14 09:46:43;;;;;;;19.13;12.90;;;;;;;;;;5013646;28;20487;-43
2022/11/14 09:49:23;;;;;;;22.67;14.03;;;;;;;;;;5021295;28;20781;-45
2022/11/14 09:51:52;;;;;;;20.53;12.60;;;;;;;;;;5020154;28;20477;-45
2022/11/14 09:54:18;;;;;;;22.27;16.33;;;;;;;;;;5028470;28;20474;-45
2022/11/14 09:56:44;;;;;;;23.83;15.60;;;;;;;;;;5021449;28;20764;-44
2022/11/14 09:59:10;;;;;;;23.67;15.27;;;;;;;;;;5025751;28;20949;-44
2022/11/14 10:01:46;;;;;;;22.30;16.03;;;;;;;;;;5020902;28;20443;-44
2022/11/14 10:04:30;;;;;;;25.00;15.93;;;;;;;;;;5019732;28;20452;-54
2022/11/14 10:06:56;;;;;;;24.13;14.93;;;;;;;;;;5021322;28;20465;-43
2022/11/14 10:09:25;;;;;;;21.73;14.13;;;;;;;;;;5026094;28;20436;-46
2022/11/14 10:11:55;;;;;;;21.83;13.80;;;;;;;;;;5027901;28;20829;-45
2022/11/14 10:14:21;;;;;;;23.20;14.43;;;;;;;;;;5021251;28;20447;-45
2022/11/14 10:16:53;;;;;;;22.20;14.33;;;;;;;;;;5022881;28;20499;-45
2022/11/14 10:19:37;;;;;;;20.80;13.87;;;;;;;;;;5020077;28;20981;-45
2022/11/14 10:22:22;;;;;;;18.97;13.57;;;;;;;;;;5026261;28;20437;-43
2022/11/14 10:24:48;;;;;;;21.50;14.27;;;;;;;;;;5027666;28;20500;-45
2022/11/14 10:27:24;;;;;;;20.80;13.37;;;;;;;;;;5026986;28;20558;-43
2022/11/14 10:29:58;;;;;;;20.40;13.30;;;;;;;;;;5020226;28;20418;-43
2022/11/14 10:32:24;;;;;;;20.93;14.13;;;;;;;;;;5021620;28;20434;-43
2022/11/14 10:34:55;;;;;;;18.17;12.80;;;;;;;;;;5024119;28;20783;-42
2022/11/14 10:37:25;;;;;;;18.60;12.07;;;;;;;;;;5026743;28;20406;-42
2022/11/14 10:39:53;;;;;;;16.87;11.80;;;;;;;;;;5023726;28;20411;-42
2022/11/14 10:42:24;;;;;;;16.00;12.13;;;;;;;;;;5025338;28;20485;-43
2022/11/14 10:44:53;;;;;;;16.83;12.00;;;;;;;;;;5024887;28;20418;-42
2022/11/14 10:47:21;;;;;;;17.80;12.50;;;;;;;;;;5019679;28;20473;-42
2022/11/14 10:49:48;;;;;;;18.40;11.80;;;;;;;;;;5026262;28;20422;-42
2022/11/14 10:52:18;;;;;;;21.13;13.63;;;;;;;;;;5023652;28;20526;-42
2022/11/14 10:54:45;;;;;;;16.60;12.30;;;;;;;;;;5021795;28;20427;-42
2022/11/14 10:57:14;;;;;;;15.97;11.80;;;;;;;;;;5022484;28;20410;-42
2022/11/14 10:59:41;;;;;;;19.03;12.37;;;;;;;;;;5023119;28;20418;-42
2022/11/14 11:02:07;;;;;;;15.73;11.20;;;;;;;;;;5022908;28;20457;-42
2022/11/14 11:04:35;;;;;;;21.67;13.27;;;;;;;;;;5022929;28;20418;-42
2022/11/14 11:07:07;;;;;;;15.03;11.33;;;;;;;;;;5023528;28;20457;-42
2022/11/14 11:12:21;;;;;;;15.77;11.20;;;;;;;;;;5020629;28;20445;-42
2022/11/14 11:14:49;;;;;;;18.53;12.40;;;;;;;;;;5018123;28;20421;-42
2022/11/14 11:17:18;;;;;;;15.97;11.17;;;;;;;;;;5026120;28;20454;-42
2022/11/14 11:19:46;;;;;;;17.73;11.67;;;;;;;;;;5022937;28;20430;-42
2022/11/14 11:22:28;;;;;;;14.43;10.50;;;;;;;;;;5024056;28;20458;-42
2022/11/14 11:24:54;;;;;;;15.83;10.20;;;;;;;;;;5023736;28;20437;-42
2022/11/14 11:27:24;;;;;;;15.30;11.30;;;;;;;;;;5022781;28;20995;-42
2022/11/14 11:30:02;;;;;;;14.97;11.13;;;;;;;;;;5022260;28;20411;-42
2022/11/14 11:32:28;;;;;;;14.43;10.07;;;;;;;;;;5022193;28;20441;-42
2022/11/14 11:34:55;;;;;;;15.47;10.87;;;;;;;;;;5026507;28;20510;-42
2022/11/14 11:37:24;;;;;;;16.40;10.87;;;;;;;;;;5023083;28;20421;-43
2022/11/14 11:39:54;;;;;;;14.23;9.97;;;;;;;;;;5019137;28;20445;-42
2022/11/14 11:42:53;;;;;;;16.50;10.97;;;;;;;;;;5023557;28;20408;-42
2022/11/14 11:45:19;;;;;;;15.50;11.03;;;;;;;;;;5002155;28;20844;-43
2022/11/14 11:47:57;;;;;;;17.13;10.43;;;;;;;;;;5022013;28;20467;-43
2022/11/14 11:50:23;;;;;;;15.00;10.20;;;;;;;;;;5015349;28;20390;-43
2022/11/14 11:53:14;;;;;;;12.40;9.13;;;;;;;;;;5022327;28;20452;-43
2022/11/14 11:55:44;;;;;;;10.70;9.10;;;;;;;;;;5018007;28;20373;-43
2022/11/14 11:58:30;;;;;;;11.43;8.87;;;;;;;;;;5022246;28;20407;-43
2022/11/14 12:00:55;;;;;;;15.23;9.60;;;;;;;;;;5022803;28;20523;-42
2022/11/14 12:03:23;;;;;;;10.97;8.97;;;;;;;;;;5025328;28;20456;-42
2022/11/14 12:05:57;;;;;;;13.57;10.60;;;;;;;;;;5021921;28;20412;-42
2022/11/14 12:08:29;;;;;;;12.13;8.83;;;;;;;;;;5023220;28;20478;-42
2022/11/14 12:10:56;;;;;;;12.77;9.37;;;;;;;;;;5016386;28;20438;-42
2022/11/14 12:13:34;;;;;;;9.83;8.53;;;;;;;;;;5024877;28;20452;-42
2022/11/14 12:16:00;;;;;;;12.40;8.97;;;;;;;;;;5021474;28;20457;-42
2022/11/14 12:18:46;;;;;;;11.83;8.83;;;;;;;;;;5023256;28;20411;-42
2022/11/14 12:21:15;;;;;;;14.47;9.47;;;;;;;;;;5012043;28;20815;-42
2022/11/14 12:23:47;;;;;;;11.83;8.57;;;;;;;;;;5019868;28;20420;-42
2022/11/14 12:26:20;;;;;;;12.70;9.23;;;;;;;;;;5014640;28;20402;-42
2022/11/14 12:28:48;;;;;;;12.23;9.00;;;;;;;;;;5038599;28;20419;-42
2022/11/14 12:31:15;;;;;;;9.47;7.60;;;;;;;;;;5028611;28;20434;-42
2022/11/14 12:33:51;;;;;;;10.03;7.73;;;;;;;;;;5025556;28;20414;-42
2022/11/14 12:36:17;;;;;;;16.10;8.40;;;;;;;;;;5012890;28;20425;-43
2022/11/14 12:38:47;;;;;;;10.93;8.30;;;;;;;;;;5017756;28;20421;-42
2022/11/14 12:41:20;;;;;;;12.60;8.80;;;;;;;;;;5016497;28;20447;-42
2022/11/14 12:43:46;;;;;;;9.07;7.47;;;;;;;;;;5022206;28;20972;-42
2022/11/14 12:46:13;;;;;;;13.40;7.83;;;;;;;;;;5024953;28;20407;-43
2022/11/14 12:48:40;;;;;;;11.10;7.90;;;;;;;;;;5016966;28;20414;-43
2022/11/14 12:51:25;;;;;;;10.63;7.80;;;;;;;;;;5024932;28;20455;-43
2022/11/14 12:53:51;;;;;;;9.67;7.97;;;;;;;;;;5024675;28;20822;-43
2022/11/14 12:56:29;;;;;;;11.73;7.90;;;;;;;;;;5025118;28;20539;-43
2022/11/14 12:58:58;;;;;;;11.97;7.97;;;;;;;;;;5023504;28;20422;-43
2022/11/14 13:01:30;;;;;;;10.93;8.40;;;;;;;;;;5026109;28;20434;-42
2022/11/14 13:04:15;;;;;;;11.03;9.07;;;;;;;;;;5024042;28;20433;-42
2022/11/14 13:06:40;;;;;;;10.47;8.57;;;;;;;;;;5018268;28;20529;-42
2022/11/14 13:09:25;;;;;;;12.83;9.63;;;;;;;;;;5024463;28;20938;-42
2022/11/14 13:23:27;;;;;;;10.50;8.37;;;;;;;;;;5018594;28;20413;-42
2022/11/14 13:26:12;;;;;;;10.20;8.27;;;;;;;;;;5021906;28;20900;-43
2022/11/14 13:28:38;;;;;;;12.80;10.00;;;;;;;;;;5021535;28;20959;-42
2022/11/14 13:31:05;;;;;;;11.63;9.53;;;;;;;;;;5023355;28;20471;-42
2022/11/14 13:33:41;;;;;;;11.77;9.17;;;;;;;;;;5021204;28;20404;-42
2022/11/14 13:36:11;;;;;;;15.93;8.40;;;;;;;;;;5021352;28;20399;-43
2022/11/14 13:38:40;;;;;;;12.23;9.43;;;;;;;;;;5021213;28;20416;-41
2022/11/14 13:41:14;;;;;;;12.93;9.60;;;;;;;;;;5026221;28;20439;-41
2022/11/14 13:44:00;;;;;;;13.10;8.77;;;;;;;;;;5025501;28;20506;-42
2022/11/14 13:46:26;;;;;;;14.27;9.03;;;;;;;;;;5019430;28;20971;-42
2022/11/14 13:49:11;;;;;;;14.10;9.33;;;;;;;;;;5016412;28;20427;-42
2022/11/14 13:51:37;;;;;;;13.10;8.90;;;;;;;;;;5023865;28;20430;-43
2022/11/14 13:54:10;;;;;;;14.77;9.20;;;;;;;;;;5022164;28;20416;-43
2022/11/14 13:56:51;;;;;;;13.93;9.57;;;;;;;;;;5021354;28;20411;-42
2022/11/14 13:59:25;;;;;;;12.57;9.77;;;;;;;;;;5013598;28;20498;-42
2022/11/14 14:02:09;;;;;;;15.27;11.00;;;;;;;;;;5021591;28;20424;-42
2022/11/14 14:04:45;;;;;;;12.63;9.33;;;;;;;;;;5020822;28;20967;-43
2022/11/14 14:07:33;;;;;;;15.47;9.20;;;;;;;;;;5024411;28;20463;-42
2022/11/14 14:10:08;;;;;;;19.97;10.57;;;;;;;;;;5020658;28;20443;-42
2022/11/14 14:12:52;;;;;;;13.80;9.73;;;;;;;;;;5021058;28;20450;-42
2022/11/14 14:15:20;;;;;;;12.93;9.23;;;;;;;;;;5020468;28;20425;-42
2022/11/14 14:17:51;;;;;;;15.03;10.93;;;;;;;;;;5020952;28;20414;-43
2022/11/14 14:20:21;;;;;;;18.90;10.23;;;;;;;;;;5019761;28;20397;-43
2022/11/14 14:22:47;;;;;;;16.13;10.00;;;;;;;;;;5025326;28;20518;-43
2022/11/14 14:25:18;;;;;;;14.63;9.87;;;;;;;;;;5019487;28;20493;-41
2022/11/14 14:27:50;;;;;;;15.07;10.70;;;;;;;;;;5017820;28;21071;-42
2022/11/14 14:30:17;;;;;;;11.70;9.63;;;;;;;;;;5012258;28;20450;-42
2022/11/14 14:32:43;;;;;;;13.00;10.30;;;;;;;;;;5020421;28;20488;-42
2022/11/14 14:35:22;;;;;;;14.23;10.20;;;;;;;;;;5023165;28;20408;-43
2022/11/14 14:37:52;;;;;;;16.43;10.60;;;;;;;;;;5021080;28;20429;-43
2022/11/14 14:40:24;;;;;;;13.33;9.90;;;;;;;;;;5023049;28;20427;-41
2022/11/14 14:42:50;;;;;;;12.67;8.90;;;;;;;;;;5022360;28;20470;-42